Time;durP1;ratioP1;P1;durP2;ratioP2;P2;SDS_P1;SDS_P2;PMS_P1;PMS_P2;Temp;Humidity;BMP_temperature;BMP_pressure;BME280_temperature;BME280_humidity;BME280_pressure;Samples;Min_cycle;Max_cycle;Signal;HPM_P1;HPM_P2
2021/11/22 07:16:23;;;;;;;4.90;1.30;;;;;;;;;;5091278;27;20512;-75
2021/11/22 07:18:49;;;;;;;3.03;1.35;;;;;;;;;;5090784;28;20055;-79
2021/11/22 07:21:14;;;;;;;2.45;1.30;;;;;;;;;;5064584;28;20032;-75
2021/11/22 07:23:40;;;;;;;3.25;0.95;;;;;;;;;;5087316;28;20054;-73
2021/11/22 07:26:06;;;;;;;7.85;1.58;;;;;;;;;;5090855;28;20035;-74
2021/11/22 07:28:31;;;;;;;3.65;1.25;;;;;;;;;;5090816;28;20025;-73
2021/11/22 07:30:58;;;;;;;6.15;1.40;;;;;;;;;;5090532;28;20494;-75
2021/11/22 07:33:24;;;;;;;72.25;5.88;;;;;;;;;;5098969;28;20043;-77
2021/11/22 07:35:50;;;;;;;17.02;1.95;;;;;;;;;;5013988;28;20041;-74
2021/11/22 07:38:16;;;;;;;18.30;2.33;;;;;;;;;;5030429;28;20052;-75
2021/11/22 07:40:42;;;;;;;10.70;1.63;;;;;;;;;;5030238;28;20100;-77
2021/11/22 07:43:07;;;;;;;8.52;1.42;;;;;;;;;;5018801;28;20173;-77
2021/11/22 07:45:33;;;;;;;16.85;1.98;;;;;;;;;;5027704;28;20049;-78
2021/11/22 07:47:59;;;;;;;18.95;1.77;;;;;;;;;;5029232;28;20034;-78
2021/11/22 07:50:26;;;;;;;15.85;2.05;;;;;;;;;;5028341;28;20025;-78
2021/11/22 07:52:52;;;;;;;4.85;1.33;;;;;;;;;;5028962;28;20387;-81
2021/11/22 07:55:21;;;;;;;7.75;1.75;;;;;;;;;;5044598;28;20470;-75
2021/11/22 07:57:46;;;;;;;7.93;1.50;;;;;;;;;;5027969;28;20088;-77
2021/11/22 08:00:15;;;;;;;5.40;1.10;;;;;;;;;;5028198;28;20063;-77
2021/11/22 08:02:40;;;;;;;7.13;1.15;;;;;;;;;;5029232;28;20514;-77
2021/11/22 08:05:08;;;;;;;3.03;1.38;;;;;;;;;;5027842;28;20034;-77
2021/11/22 08:07:36;;;;;;;3.17;1.45;;;;;;;;;;5028238;28;20037;-78
2021/11/22 08:10:15;;;;;;;5.72;1.42;;;;;;;;;;5029068;28;20477;-78
2021/11/22 08:12:41;;;;;;;5.10;1.27;;;;;;;;;;5029286;28;20053;-76
2021/11/22 08:15:09;;;;;;;5.68;1.33;;;;;;;;;;5028952;28;20535;-79
2021/11/22 08:17:38;;;;;;;5.00;1.52;;;;;;;;;;5025930;28;20065;-79
2021/11/22 08:20:04;;;;;;;5.47;1.50;;;;;;;;;;5024384;28;20040;-76
2021/11/22 08:22:30;;;;;;;5.72;1.42;;;;;;;;;;5026787;28;20036;-79
2021/11/22 08:24:56;;;;;;;5.05;2.13;;;;;;;;;;5017565;28;20389;-74
2021/11/22 08:27:23;;;;;;;3.13;1.20;;;;;;;;;;4996589;28;20030;-78
2021/11/22 08:29:49;;;;;;;6.88;1.70;;;;;;;;;;4977361;28;20038;-71
2021/11/22 08:32:15;;;;;;;2.65;1.30;;;;;;;;;;4994704;28;20597;-73
2021/11/22 08:34:40;;;;;;;3.95;1.10;;;;;;;;;;4994969;28;20038;-72
2021/11/22 08:37:06;;;;;;;3.03;1.00;;;;;;;;;;5010627;28;20030;-70
2021/11/22 08:39:31;;;;;;;3.10;1.30;;;;;;;;;;5014341;28;20468;-71
2021/11/22 08:41:57;;;;;;;4.07;1.23;;;;;;;;;;5014401;28;20457;-75
2021/11/22 08:44:23;;;;;;;3.45;1.40;;;;;;;;;;5012701;28;20045;-73
2021/11/22 08:46:48;;;;;;;5.13;1.30;;;;;;;;;;4996795;28;20037;-72
2021/11/22 08:49:14;;;;;;;2.33;1.17;;;;;;;;;;5012812;28;20022;-72
2021/11/22 08:51:41;;;;;;;7.03;1.55;;;;;;;;;;5014070;28;20437;-72
2021/11/22 08:54:06;;;;;;;3.22;1.15;;;;;;;;;;5012804;28;20476;-73
2021/11/22 08:56:32;;;;;;;7.97;1.70;;;;;;;;;;5013793;28;20125;-74
2021/11/22 08:58:58;;;;;;;4.43;1.10;;;;;;;;;;5012383;28;20029;-73
2021/11/22 09:01:24;;;;;;;3.20;1.10;;;;;;;;;;5013839;28;20468;-74
2021/11/22 09:03:51;;;;;;;3.67;1.30;;;;;;;;;;5012775;28;20056;-71
2021/11/22 09:06:18;;;;;;;3.05;1.20;;;;;;;;;;5012566;28;20472;-73
2021/11/22 09:08:44;;;;;;;3.83;1.45;;;;;;;;;;5013677;28;20072;-73
2021/11/22 09:11:11;;;;;;;6.80;1.73;;;;;;;;;;5012068;28;20489;-72
2021/11/22 09:13:38;;;;;;;4.15;1.30;;;;;;;;;;5013344;28;20036;-73
2021/11/22 09:16:04;;;;;;;3.78;1.30;;;;;;;;;;4983300;28;20054;-73
2021/11/22 09:18:30;;;;;;;4.88;1.30;;;;;;;;;;5025668;28;20026;-71
2021/11/22 09:20:55;;;;;;;4.95;1.35;;;;;;;;;;4993015;28;20034;-74
2021/11/22 09:23:21;;;;;;;4.70;1.25;;;;;;;;;;4995475;28;20578;-74
2021/11/22 09:25:47;;;;;;;4.40;1.70;;;;;;;;;;5013371;28;20038;-71
2021/11/22 09:28:13;;;;;;;3.75;1.40;;;;;;;;;;5013236;28;20030;-72
2021/11/22 09:30:38;;;;;;;4.88;1.52;;;;;;;;;;5011903;28;20033;-71
2021/11/22 09:33:04;;;;;;;4.07;1.50;;;;;;;;;;5014224;28;20030;-72
2021/11/22 09:35:30;;;;;;;4.97;1.30;;;;;;;;;;5014344;28;20049;-74
2021/11/22 09:37:56;;;;;;;3.28;1.27;;;;;;;;;;5012312;28;20386;-74
2021/11/22 09:40:21;;;;;;;4.47;1.60;;;;;;;;;;5012877;28;20037;-71
2021/11/22 09:42:47;;;;;;;4.18;1.25;;;;;;;;;;5014293;28;20092;-73
2021/11/22 09:45:13;;;;;;;5.68;1.52;;;;;;;;;;5014107;28;20064;-72
2021/11/22 09:47:39;;;;;;;5.15;1.48;;;;;;;;;;5014156;28;20040;-71
2021/11/22 09:50:06;;;;;;;3.53;1.33;;;;;;;;;;5013931;28;20030;-71
2021/11/22 09:52:33;;;;;;;2.15;1.00;;;;;;;;;;5013954;28;20022;-73
2021/11/22 09:54:59;;;;;;;3.28;1.48;;;;;;;;;;4993208;28;20579;-71
2021/11/22 09:57:25;;;;;;;7.00;2.10;;;;;;;;;;4989554;28;20057;-81
2021/11/22 09:59:50;;;;;;;4.45;1.58;;;;;;;;;;5009294;28;20660;-72
2021/11/22 10:02:16;;;;;;;3.78;1.38;;;;;;;;;;5009601;28;20058;-75
2021/11/22 10:04:42;;;;;;;3.75;1.70;;;;;;;;;;5009447;28;20474;-76
2021/11/22 10:07:09;;;;;;;6.53;1.50;;;;;;;;;;4992748;28;20370;-73
2021/11/22 10:09:37;;;;;;;3.65;1.42;;;;;;;;;;5009529;28;20037;-72
2021/11/22 10:12:18;;;;;;;2.40;1.13;;;;;;;;;;5009119;28;20034;-72
2021/11/22 10:14:44;;;;;;;3.03;1.27;;;;;;;;;;4993780;28;20477;-71
2021/11/22 10:17:22;;;;;;;3.70;1.20;;;;;;;;;;5009132;28;20065;-71
2021/11/22 10:20:10;;;;;;;2.50;1.23;;;;;;;;;;4994002;28;20092;-74
2021/11/22 10:22:39;;;;;;;5.47;1.27;;;;;;;;;;4994078;28;20037;-73
2021/11/22 10:25:27;;;;;;;5.07;1.60;;;;;;;;;;5009715;28;20030;-71
2021/11/22 10:27:58;;;;;;;24.05;1.42;;;;;;;;;;5012206;28;20121;-71
2021/11/22 10:30:25;;;;;;;2.08;1.35;;;;;;;;;;5012124;28;20037;-72
2021/11/22 10:32:55;;;;;;;2.88;1.27;;;;;;;;;;5012332;28;20052;-71
2021/11/22 10:35:23;;;;;;;3.38;1.27;;;;;;;;;;5013162;28;20038;-74
2021/11/22 10:37:52;;;;;;;3.50;1.30;;;;;;;;;;5013284;28;20068;-73
2021/11/22 10:40:18;;;;;;;3.85;1.17;;;;;;;;;;5011872;28;20026;-72
2021/11/22 10:42:43;;;;;;;3.25;1.30;;;;;;;;;;5013255;28;20395;-72
2021/11/22 10:45:20;;;;;;;4.10;1.98;;;;;;;;;;5011084;28;20501;-71
2021/11/22 10:47:56;;;;;;;3.70;1.45;;;;;;;;;;5011733;28;20053;-73
2021/11/22 10:50:25;;;;;;;2.67;1.30;;;;;;;;;;5010061;28;20029;-75
2021/11/22 10:52:51;;;;;;;6.50;1.88;;;;;;;;;;5013108;28;20042;-75
2021/11/22 10:55:17;;;;;;;3.90;1.85;;;;;;;;;;4995396;28;20042;-76
2021/11/22 10:57:44;;;;;;;6.35;2.22;;;;;;;;;;5027898;28;20029;-75
2021/11/22 11:00:25;;;;;;;4.07;1.67;;;;;;;;;;5011749;28;20038;-76
2021/11/22 11:02:51;;;;;;;7.88;2.00;;;;;;;;;;5013086;28;20040;-74
2021/11/22 11:05:31;;;;;;;7.07;2.03;;;;;;;;;;5012947;28;20030;-78
2021/11/22 11:07:59;;;;;;;5.90;2.13;;;;;;;;;;5012494;28;20057;-79
2021/11/22 11:10:25;;;;;;;5.65;2.05;;;;;;;;;;5012630;28;20065;-79
2021/11/22 11:12:55;;;;;;;8.07;1.90;;;;;;;;;;5012907;28;20065;-75
2021/11/22 11:15:24;;;;;;;5.05;1.65;;;;;;;;;;5013242;28;20056;-76
2021/11/22 11:17:50;;;;;;;4.68;2.08;;;;;;;;;;5028987;28;20025;-85
2021/11/22 11:20:17;;;;;;;5.00;1.98;;;;;;;;;;5014775;28;20080;-82
2021/11/22 11:22:43;;;;;;;4.07;1.95;;;;;;;;;;5014339;28;20022;-73
2021/11/22 11:25:10;;;;;;;6.30;2.55;;;;;;;;;;5013169;28;20118;-72
2021/11/22 11:27:38;;;;;;;4.68;2.10;;;;;;;;;;5013060;28;20037;-78
2021/11/22 11:30:04;;;;;;;4.97;2.35;;;;;;;;;;5013359;28;20030;-77
2021/11/22 11:32:31;;;;;;;5.70;1.83;;;;;;;;;;4992211;28;20096;-78
2021/11/22 11:34:57;;;;;;;7.90;2.33;;;;;;;;;;4996090;28;20126;-81
2021/11/22 11:37:34;;;;;;;4.47;1.83;;;;;;;;;;4995827;28;20026;-76
2021/11/22 11:39:59;;;;;;;5.00;1.80;;;;;;;;;;4996330;28;20033;-78
2021/11/22 11:42:39;;;;;;;6.07;2.22;;;;;;;;;;5012088;28;20041;-78
2021/11/22 11:45:09;;;;;;;3.53;1.83;;;;;;;;;;5012066;28;20385;-78
2021/11/22 11:47:40;;;;;;;7.70;2.47;;;;;;;;;;5011532;28;20030;-81
2021/11/22 11:50:16;;;;;;;4.50;2.13;;;;;;;;;;5027836;28;20022;-77
2021/11/22 11:52:50;;;;;;;5.90;1.95;;;;;;;;;;5012616;28;20083;-75
2021/11/22 11:55:15;;;;;;;6.15;1.83;;;;;;;;;;5012150;28;20045;-80
2021/11/22 11:57:41;;;;;;;2.50;1.90;;;;;;;;;;5028193;28;20501;-76
2021/11/22 12:00:20;;;;;;;11.80;2.92;;;;;;;;;;5012125;28;20034;-75
2021/11/22 12:02:57;;;;;;;5.03;2.10;;;;;;;;;;5030258;28;20087;-75
2021/11/22 12:05:41;;;;;;;5.28;2.10;;;;;;;;;;5044931;28;20054;-76
2021/11/22 12:08:20;;;;;;;5.22;2.10;;;;;;;;;;5015424;28;20160;-77
2021/11/22 12:10:46;;;;;;;5.72;1.80;;;;;;;;;;5015656;28;20423;-75
2021/11/22 12:13:14;;;;;;;3.63;1.73;;;;;;;;;;4999140;28;20026;-76
2021/11/22 12:15:42;;;;;;;4.75;2.03;;;;;;;;;;4998819;28;20133;-74
2021/11/22 12:18:24;;;;;;;3.38;1.77;;;;;;;;;;5015394;28;20041;-75
2021/11/22 12:20:52;;;;;;;7.18;2.00;;;;;;;;;;5015430;28;20038;-72
2021/11/22 12:23:19;;;;;;;4.93;1.92;;;;;;;;;;5016092;28;20152;-75
2021/11/22 12:25:49;;;;;;;4.25;1.98;;;;;;;;;;5015264;28;20493;-75
2021/11/22 12:28:35;;;;;;;4.90;1.85;;;;;;;;;;5014049;28;20033;-75
2021/11/22 12:31:06;;;;;;;4.53;2.00;;;;;;;;;;5014230;28;20073;-75
2021/11/22 12:33:33;;;;;;;4.40;2.10;;;;;;;;;;5014090;28;20034;-75
2021/11/22 12:36:00;;;;;;;5.60;1.83;;;;;;;;;;5014135;28;20176;-76
2021/11/22 12:38:26;;;;;;;5.32;2.00;;;;;;;;;;4998047;28;20030;-74
2021/11/22 12:40:56;;;;;;;3.20;1.70;;;;;;;;;;5011583;28;20034;-73
2021/11/22 12:43:41;;;;;;;4.22;2.33;;;;;;;;;;5013035;28;20385;-75
2021/11/22 12:46:07;;;;;;;4.13;2.05;;;;;;;;;;4996837;28;20033;-76
2021/11/22 12:48:34;;;;;;;4.90;2.33;;;;;;;;;;5013939;28;20038;-76
2021/11/22 12:51:01;;;;;;;3.90;2.00;;;;;;;;;;4996701;28;20037;-75
2021/11/22 12:53:26;;;;;;;3.75;2.20;;;;;;;;;;5012539;28;20033;-75
2021/11/22 12:55:53;;;;;;;5.10;2.13;;;;;;;;;;5013433;28;20583;-76
2021/11/22 12:58:29;;;;;;;3.13;1.85;;;;;;;;;;4996373;28;20037;-76
2021/11/22 13:00:56;;;;;;;5.45;2.20;;;;;;;;;;4996317;28;20034;-74
2021/11/22 13:03:22;;;;;;;3.67;1.85;;;;;;;;;;5013850;28;20045;-73
2021/11/22 13:05:51;;;;;;;5.45;1.85;;;;;;;;;;4996067;28;20040;-74
2021/11/22 13:08:17;;;;;;;4.88;2.20;;;;;;;;;;5012614;28;20061;-75
2021/11/22 13:10:45;;;;;;;4.80;1.98;;;;;;;;;;5013560;28;20065;-74
2021/11/22 13:13:12;;;;;;;3.92;1.90;;;;;;;;;;4996198;28;20030;-75
2021/11/22 13:15:58;;;;;;;8.02;2.30;;;;;;;;;;5011933;28;20062;-73
2021/11/22 13:18:25;;;;;;;4.22;2.03;;;;;;;;;;5012017;28;20045;-74
2021/11/22 13:20:52;;;;;;;5.55;2.10;;;;;;;;;;5012157;28;20116;-75
2021/11/22 13:23:19;;;;;;;6.15;2.60;;;;;;;;;;4995918;28;20034;-75
2021/11/22 13:25:48;;;;;;;4.57;2.60;;;;;;;;;;5011431;28;20148;-76
2021/11/22 13:28:16;;;;;;;5.88;2.20;;;;;;;;;;4979299;28;20041;-75
2021/11/22 13:30:42;;;;;;;7.45;2.45;;;;;;;;;;5012017;28;20064;-77
2021/11/22 13:33:08;;;;;;;4.93;2.15;;;;;;;;;;5013110;28;20073;-77
2021/11/22 13:35:35;;;;;;;11.00;2.40;;;;;;;;;;5012056;28;20658;-76
2021/11/22 13:38:14;;;;;;;8.05;2.25;;;;;;;;;;5012294;28;20041;-76
2021/11/22 13:41:00;;;;;;;6.80;2.20;;;;;;;;;;5013047;28;20401;-75
2021/11/22 13:43:27;;;;;;;5.97;2.42;;;;;;;;;;5009959;28;20038;-73
2021/11/22 13:45:57;;;;;;;6.63;2.33;;;;;;;;;;5014034;28;20025;-74
2021/11/22 13:48:42;;;;;;;8.25;2.17;;;;;;;;;;5013995;28;20048;-75
2021/11/22 13:51:07;;;;;;;11.00;2.40;;;;;;;;;;5029240;28;20108;-76
2021/11/22 13:53:33;;;;;;;5.72;2.22;;;;;;;;;;5029245;28;20557;-75
2021/11/22 13:55:58;;;;;;;3.65;1.95;;;;;;;;;;5013982;28;20034;-75
2021/11/22 13:58:26;;;;;;;6.90;2.17;;;;;;;;;;5029145;28;20029;-76
2021/11/22 14:00:54;;;;;;;7.85;2.10;;;;;;;;;;5012452;28;20042;-76
2021/11/22 14:03:20;;;;;;;6.03;2.35;;;;;;;;;;4996174;28;20443;-75
2021/11/22 14:05:46;;;;;;;4.93;1.88;;;;;;;;;;5012474;28;20033;-78
2021/11/22 14:08:13;;;;;;;6.95;2.40;;;;;;;;;;5012551;28;20087;-75
2021/11/22 14:10:40;;;;;;;9.13;2.40;;;;;;;;;;5013763;28;20058;-76
2021/11/22 14:13:07;;;;;;;8.00;2.28;;;;;;;;;;5012365;28;20022;-76
2021/11/22 14:15:36;;;;;;;4.78;2.20;;;;;;;;;;5012197;28;20058;-76
2021/11/22 14:18:03;;;;;;;5.22;1.92;;;;;;;;;;5012457;28;20033;-75
2021/11/22 14:20:29;;;;;;;7.75;1.98;;;;;;;;;;5013363;28;20038;-74
2021/11/22 14:23:04;;;;;;;7.63;2.03;;;;;;;;;;4996218;28;20034;-76
2021/11/22 14:25:31;;;;;;;4.75;2.22;;;;;;;;;;5028189;28;20473;-76
2021/11/22 14:27:58;;;;;;;3.67;1.98;;;;;;;;;;5028752;28;20030;-76
2021/11/22 14:30:27;;;;;;;4.95;2.03;;;;;;;;;;5012226;28;20034;-77
2021/11/22 14:33:00;;;;;;;4.93;2.28;;;;;;;;;;5012042;28;20480;-76
2021/11/22 14:35:29;;;;;;;7.60;1.77;;;;;;;;;;5028504;28;20044;-75
2021/11/22 14:38:15;;;;;;;4.35;2.08;;;;;;;;;;5012197;28;20261;-75
2021/11/22 14:40:42;;;;;;;7.13;2.15;;;;;;;;;;5013419;28;20060;-78
2021/11/22 14:43:12;;;;;;;5.57;2.17;;;;;;;;;;5013205;28;20122;-77
2021/11/22 14:45:41;;;;;;;3.50;1.65;;;;;;;;;;5013577;28;20029;-78
2021/11/22 14:48:18;;;;;;;6.35;1.60;;;;;;;;;;5013088;28;20034;-78
2021/11/22 14:50:58;;;;;;;4.70;1.88;;;;;;;;;;5013059;28;20084;-78
2021/11/22 14:53:24;;;;;;;5.53;1.83;;;;;;;;;;5011906;28;20112;-78
2021/11/22 14:56:08;;;;;;;3.63;1.80;;;;;;;;;;5012869;28;20463;-76
2021/11/22 14:58:45;;;;;;;4.72;2.00;;;;;;;;;;5011742;28;20057;-79
2021/11/22 15:01:31;;;;;;;7.60;2.33;;;;;;;;;;5010531;28;20054;-76
2021/11/22 15:03:58;;;;;;;5.25;2.40;;;;;;;;;;5004381;28;20464;-78
2021/11/22 15:06:25;;;;;;;4.95;2.20;;;;;;;;;;5011643;28;20033;-76
2021/11/22 15:09:10;;;;;;;7.50;2.03;;;;;;;;;;5011535;28;20392;-76
2021/11/22 15:11:38;;;;;;;3.97;2.20;;;;;;;;;;4992084;28;20034;-76
2021/11/22 15:14:14;;;;;;;4.13;2.10;;;;;;;;;;4998502;28;20536;-75
2021/11/22 15:16:40;;;;;;;5.05;2.50;;;;;;;;;;5011541;28;20038;-77
2021/11/22 15:19:06;;;;;;;3.42;1.70;;;;;;;;;;5007893;28;20026;-76
2021/11/22 15:21:32;;;;;;;8.95;2.85;;;;;;;;;;5007667;28;20025;-77
2021/11/22 15:23:58;;;;;;;7.10;2.15;;;;;;;;;;4995411;28;20041;-76
2021/11/22 15:26:23;;;;;;;4.15;2.10;;;;;;;;;;5011603;28;20048;-77
2021/11/22 15:28:49;;;;;;;6.80;2.28;;;;;;;;;;4994813;28;20034;-78
2021/11/22 15:31:15;;;;;;;4.82;2.35;;;;;;;;;;5011293;28;20058;-77
2021/11/22 15:33:41;;;;;;;7.72;2.28;;;;;;;;;;5011548;28;20524;-75
2021/11/22 15:36:07;;;;;;;7.53;2.22;;;;;;;;;;4995429;28;20093;-75
2021/11/22 15:38:32;;;;;;;6.43;2.13;;;;;;;;;;4993516;28;20470;-76
2021/11/22 15:40:58;;;;;;;6.70;2.65;;;;;;;;;;4995047;28;20042;-78
2021/11/22 15:43:24;;;;;;;7.90;2.35;;;;;;;;;;4978451;28;20034;-77
2021/11/22 15:45:49;;;;;;;5.78;2.17;;;;;;;;;;4979445;28;20044;-77
2021/11/22 15:48:15;;;;;;;7.82;2.42;;;;;;;;;;4996734;28;20042;-77
2021/11/22 15:50:41;;;;;;;15.40;3.33;;;;;;;;;;4995608;28;20034;-77
2021/11/22 15:53:07;;;;;;;15.60;3.17;;;;;;;;;;4979460;28;20038;-77
2021/11/22 15:55:34;;;;;;;10.07;2.70;;;;;;;;;;4970732;28;20050;-74
2021/11/22 15:58:00;;;;;;;16.58;2.80;;;;;;;;;;5015150;28;20362;-75
2021/11/22 16:00:26;;;;;;;12.32;2.88;;;;;;;;;;5013787;28;20176;-73
2021/11/22 16:02:51;;;;;;;13.32;3.05;;;;;;;;;;5014690;28;20458;-75
2021/11/22 16:05:17;;;;;;;10.48;2.60;;;;;;;;;;5015980;28;20041;-77
2021/11/22 16:07:42;;;;;;;13.63;2.95;;;;;;;;;;5015819;28;20029;-71
2021/11/22 16:10:08;;;;;;;17.08;3.40;;;;;;;;;;5014922;28;20124;-79
2021/11/22 16:12:34;;;;;;;13.30;3.45;;;;;;;;;;5015152;28;20050;-79
2021/11/22 16:14:59;;;;;;;19.25;3.85;;;;;;;;;;5015149;28;20042;-79
2021/11/22 16:17:25;;;;;;;21.60;4.68;;;;;;;;;;5014379;28;20116;-79
2021/11/22 16:19:50;;;;;;;23.95;5.35;;;;;;;;;;5013972;28;20091;-76
2021/11/22 16:22:16;;;;;;;24.13;4.47;;;;;;;;;;5014819;28;20062;-77
2021/11/22 16:24:42;;;;;;;27.10;5.00;;;;;;;;;;5015741;28;20472;-77
2021/11/22 16:27:07;;;;;;;19.25;4.63;;;;;;;;;;5014173;28;20038;-75
2021/11/22 16:29:35;;;;;;;20.67;4.63;;;;;;;;;;5014681;28;20476;-73
2021/11/22 16:32:02;;;;;;;15.63;4.75;;;;;;;;;;5015192;28;20085;-75
2021/11/22 16:34:28;;;;;;;16.58;4.55;;;;;;;;;;5015588;28;20030;-75
2021/11/22 16:36:54;;;;;;;18.17;4.45;;;;;;;;;;5030816;28;20026;-75
2021/11/22 16:39:20;;;;;;;19.90;4.97;;;;;;;;;;5015627;28;20033;-77
2021/11/22 16:41:46;;;;;;;19.02;5.03;;;;;;;;;;5015510;28;20018;-76
2021/11/22 16:44:12;;;;;;;17.85;4.68;;;;;;;;;;5015256;28;20034;-72
2021/11/22 16:46:39;;;;;;;14.05;4.00;;;;;;;;;;5014071;28;20458;-73
2021/11/22 16:49:06;;;;;;;14.75;4.22;;;;;;;;;;5015084;28;20030;-72
2021/11/22 16:51:31;;;;;;;13.55;4.13;;;;;;;;;;5014038;28;20083;-71
2021/11/22 16:53:57;;;;;;;15.38;4.72;;;;;;;;;;5030457;28;20423;-72
2021/11/22 16:56:23;;;;;;;15.77;4.43;;;;;;;;;;5013767;28;20560;-72
2021/11/22 16:58:49;;;;;;;9.20;3.70;;;;;;;;;;5014983;28;20022;-74
2021/11/22 17:01:15;;;;;;;15.70;4.55;;;;;;;;;;5013990;28;20388;-73
2021/11/22 17:03:41;;;;;;;15.75;3.83;;;;;;;;;;5014829;28;20030;-73
2021/11/22 17:06:07;;;;;;;16.77;4.03;;;;;;;;;;5013676;28;20030;-74
2021/11/22 17:08:32;;;;;;;9.50;3.83;;;;;;;;;;5014800;28;20053;-72
2021/11/22 17:10:58;;;;;;;14.23;4.03;;;;;;;;;;5013585;28;20065;-75
2021/11/22 17:13:24;;;;;;;12.10;3.60;;;;;;;;;;5014635;28;20109;-74
2021/11/22 17:15:49;;;;;;;21.08;4.40;;;;;;;;;;5014638;28;20052;-75
2021/11/22 17:18:17;;;;;;;8.75;3.85;;;;;;;;;;5012715;28;20033;-74
2021/11/22 17:20:43;;;;;;;9.38;3.85;;;;;;;;;;5014314;28;20057;-74
2021/11/22 17:23:08;;;;;;;16.02;4.00;;;;;;;;;;5014245;28;20054;-75
2021/11/22 17:25:34;;;;;;;20.27;4.07;;;;;;;;;;5013058;28;20432;-75
2021/11/22 17:27:59;;;;;;;10.40;3.67;;;;;;;;;;5029255;28;20109;-74
2021/11/22 17:30:25;;;;;;;15.05;3.63;;;;;;;;;;5013793;28;20036;-75
2021/11/22 17:32:51;;;;;;;11.88;3.30;;;;;;;;;;5029462;28;20022;-74
2021/11/22 17:35:17;;;;;;;9.32;3.70;;;;;;;;;;5013807;28;20025;-77
2021/11/22 17:37:44;;;;;;;9.15;3.63;;;;;;;;;;5028266;28;20583;-77
2021/11/22 17:40:10;;;;;;;9.07;3.15;;;;;;;;;;5012810;28;20026;-77
2021/11/22 17:42:37;;;;;;;9.45;3.53;;;;;;;;;;5029563;28;20084;-80
2021/11/22 17:45:07;;;;;;;10.82;4.10;;;;;;;;;;5014607;28;20109;-87
2021/11/22 17:47:33;;;;;;;15.65;3.85;;;;;;;;;;4961762;28;20050;-85
2021/11/22 17:50:01;;;;;;;9.85;3.50;;;;;;;;;;4980849;28;20488;-81
2021/11/22 17:52:27;;;;;;;13.15;4.03;;;;;;;;;;4996648;28;20084;-80
2021/11/22 17:54:53;;;;;;;10.85;3.63;;;;;;;;;;5012812;28;20038;-83
2021/11/22 17:57:19;;;;;;;10.93;3.42;;;;;;;;;;4991271;28;20085;-78
2021/11/22 17:59:45;;;;;;;13.07;3.50;;;;;;;;;;4993647;28;20035;-82
2021/11/22 18:02:10;;;;;;;9.25;3.70;;;;;;;;;;4993655;28;20038;-82
2021/11/22 18:04:38;;;;;;;9.23;3.78;;;;;;;;;;4995071;28;20081;-81
2021/11/22 18:07:04;;;;;;;8.77;3.50;;;;;;;;;;4994218;28;20101;-83
2021/11/22 18:09:29;;;;;;;10.50;3.47;;;;;;;;;;4994968;28;20030;-75
2021/11/22 18:11:57;;;;;;;11.48;4.00;;;;;;;;;;5013206;28;20440;-73
2021/11/22 18:14:25;;;;;;;15.10;4.10;;;;;;;;;;5013002;28;20042;-73
2021/11/22 18:16:51;;;;;;;10.30;3.85;;;;;;;;;;5011329;28;20041;-75
2021/11/22 18:19:16;;;;;;;10.30;4.13;;;;;;;;;;5013182;28;20026;-79
2021/11/22 18:21:42;;;;;;;17.25;4.35;;;;;;;;;;5011992;28;20544;-78
2021/11/22 18:24:08;;;;;;;16.38;3.63;;;;;;;;;;4994385;28;20038;-82
2021/11/22 18:26:34;;;;;;;10.13;3.47;;;;;;;;;;5011242;28;20022;-80
2021/11/22 18:28:59;;;;;;;16.23;3.85;;;;;;;;;;5011358;28;20122;-78
2021/11/22 18:31:25;;;;;;;6.43;2.90;;;;;;;;;;5013113;28;20026;-76
2021/11/22 18:33:51;;;;;;;11.18;4.28;;;;;;;;;;5012098;28;20040;-80
2021/11/22 18:36:17;;;;;;;12.10;3.80;;;;;;;;;;5012693;28;20038;-77
2021/11/22 18:38:43;;;;;;;8.93;3.58;;;;;;;;;;5012863;28;20026;-81
2021/11/22 18:41:08;;;;;;;13.02;4.07;;;;;;;;;;5012156;28;20400;-79
2021/11/22 18:43:35;;;;;;;11.07;3.45;;;;;;;;;;5009943;28;20023;-76
2021/11/22 18:46:01;;;;;;;13.52;3.63;;;;;;;;;;5012029;28;20152;-81
2021/11/22 18:48:26;;;;;;;10.93;4.45;;;;;;;;;;5001773;28;20165;-88
2021/11/22 18:50:53;;;;;;;8.27;3.70;;;;;;;;;;4991863;28;20042;-79
2021/11/22 18:53:20;;;;;;;12.68;3.70;;;;;;;;;;4991240;28;20022;-79
2021/11/22 18:55:46;;;;;;;12.57;3.33;;;;;;;;;;5007581;28;20413;-81
2021/11/22 18:58:12;;;;;;;11.43;3.83;;;;;;;;;;4992540;28;20023;-82
2021/11/22 19:00:41;;;;;;;11.57;3.33;;;;;;;;;;4992587;28;20088;-83
2021/11/22 19:03:06;;;;;;;11.93;3.90;;;;;;;;;;4992780;28;20033;-83
2021/11/22 19:05:32;;;;;;;11.52;3.08;;;;;;;;;;4992840;28;20030;-80
2021/11/22 19:07:58;;;;;;;10.48;4.22;;;;;;;;;;5008242;28;20038;-79
2021/11/22 19:10:24;;;;;;;9.75;3.47;;;;;;;;;;5003581;28;20057;-81
2021/11/22 19:12:50;;;;;;;9.00;3.55;;;;;;;;;;5005050;28;20018;-81
2021/11/22 19:15:17;;;;;;;8.98;3.60;;;;;;;;;;5011924;28;20061;-85
2021/11/22 19:17:43;;;;;;;8.20;3.22;;;;;;;;;;5005646;28;20101;-77
2021/11/22 19:20:09;;;;;;;6.20;3.13;;;;;;;;;;4997484;28;20122;-82
2021/11/22 19:22:35;;;;;;;7.80;2.90;;;;;;;;;;5011420;28;20030;-78
2021/11/22 19:25:01;;;;;;;5.68;2.90;;;;;;;;;;5010470;28;20025;-78
2021/11/22 19:27:27;;;;;;;25.77;3.75;;;;;;;;;;5012130;28;20030;-80
2021/11/22 19:29:53;;;;;;;8.90;3.05;;;;;;;;;;5012093;28;20028;-80
2021/11/22 19:32:19;;;;;;;7.80;3.30;;;;;;;;;;5011974;28;20030;-79
2021/11/22 19:34:45;;;;;;;8.77;3.80;;;;;;;;;;5026909;28;20034;-80
2021/11/22 19:37:12;;;;;;;7.60;3.72;;;;;;;;;;5011427;28;20449;-77
2021/11/22 19:39:37;;;;;;;6.88;2.83;;;;;;;;;;5012016;28;20033;-82
2021/11/22 19:42:04;;;;;;;11.93;3.28;;;;;;;;;;4992843;28;20386;-80
2021/11/22 19:44:30;;;;;;;9.07;3.83;;;;;;;;;;5008540;28;20026;-80
2021/11/22 19:46:55;;;;;;;7.93;3.13;;;;;;;;;;4991325;28;20462;-80
2021/11/22 19:49:21;;;;;;;8.10;3.33;;;;;;;;;;5007506;28;20034;-85
2021/11/22 19:51:47;;;;;;;8.52;3.13;;;;;;;;;;4999447;28;20381;-85
2021/11/22 19:54:13;;;;;;;7.20;2.88;;;;;;;;;;5010613;28;20063;-83
2021/11/22 19:56:38;;;;;;;9.60;2.78;;;;;;;;;;5006028;28;20030;-82
2021/11/22 19:59:04;;;;;;;7.53;2.80;;;;;;;;;;5006843;28;20026;-78
2021/11/22 20:01:29;;;;;;;31.75;3.35;;;;;;;;;;5007253;28;20508;-83
2021/11/22 20:03:55;;;;;;;15.98;3.47;;;;;;;;;;5010689;28;20030;-83
2021/11/22 20:06:21;;;;;;;13.75;3.33;;;;;;;;;;5001818;28;20412;-81
2021/11/22 20:08:47;;;;;;;9.38;2.80;;;;;;;;;;4990375;28;20066;-74
2021/11/22 20:11:15;;;;;;;12.55;2.60;;;;;;;;;;4991744;28;20112;-78
2021/11/22 20:13:47;;;;;;;8.82;3.58;;;;;;;;;;5012072;28;20033;-76
2021/11/22 20:16:13;;;;;;;9.88;4.95;;;;;;;;;;5011830;28;20046;-78
2021/11/22 20:18:39;;;;;;;9.88;5.57;;;;;;;;;;5011870;28;20081;-79
2021/11/22 20:21:04;;;;;;;9.45;5.70;;;;;;;;;;5011948;28;20038;-74
2021/11/22 20:23:30;;;;;;;9.95;5.97;;;;;;;;;;5014437;28;20037;-75
2021/11/22 20:25:56;;;;;;;11.73;4.38;;;;;;;;;;5015467;28;20022;-75
2021/11/22 20:28:22;;;;;;;9.13;3.95;;;;;;;;;;5014247;28;20068;-74
2021/11/22 20:30:48;;;;;;;7.10;3.42;;;;;;;;;;5015240;28;20058;-74
2021/11/22 20:33:13;;;;;;;8.73;3.58;;;;;;;;;;5013444;28;20030;-74
2021/11/22 20:35:39;;;;;;;6.57;3.38;;;;;;;;;;4996240;28;20068;-74
2021/11/22 20:38:05;;;;;;;6.63;3.00;;;;;;;;;;5011840;28;20025;-74
2021/11/22 20:40:30;;;;;;;13.23;3.30;;;;;;;;;;5013205;28;20029;-74
2021/11/22 20:42:56;;;;;;;16.38;3.10;;;;;;;;;;5013213;28;20022;-74
2021/11/22 20:45:22;;;;;;;6.05;2.72;;;;;;;;;;5005327;28;20037;-75
2021/11/22 20:47:48;;;;;;;6.60;3.15;;;;;;;;;;5014549;28;20033;-75
2021/11/22 20:50:13;;;;;;;7.03;3.15;;;;;;;;;;5002858;28;20019;-74
2021/11/22 20:52:40;;;;;;;5.82;2.40;;;;;;;;;;4978080;28;20042;-73
2021/11/22 20:55:07;;;;;;;7.88;2.88;;;;;;;;;;4994939;28;20216;-75
2021/11/22 20:57:32;;;;;;;5.45;2.80;;;;;;;;;;4992856;28;20556;-75
2021/11/22 20:59:58;;;;;;;7.13;2.83;;;;;;;;;;4994943;28;20153;-75
2021/11/22 21:02:24;;;;;;;7.85;3.17;;;;;;;;;;4993995;28;20026;-75
2021/11/22 21:04:50;;;;;;;9.23;2.78;;;;;;;;;;4995047;28;20436;-74
2021/11/22 21:07:15;;;;;;;5.15;2.70;;;;;;;;;;4993802;28;20078;-75
2021/11/22 21:09:41;;;;;;;6.38;2.53;;;;;;;;;;4993843;28;20069;-76
2021/11/22 21:12:07;;;;;;;5.53;2.72;;;;;;;;;;4977625;28;20493;-75
2021/11/22 21:14:32;;;;;;;3.65;2.22;;;;;;;;;;4994941;28;20030;-75
2021/11/22 21:16:58;;;;;;;7.13;3.05;;;;;;;;;;4994732;28;20492;-74
2021/11/22 21:19:28;;;;;;;6.13;2.67;;;;;;;;;;4994595;28;20397;-73
2021/11/22 21:21:53;;;;;;;7.80;2.42;;;;;;;;;;4997302;28;20030;-73
2021/11/22 21:24:19;;;;;;;6.18;2.58;;;;;;;;;;4992807;28;20033;-73
2021/11/22 21:26:46;;;;;;;4.75;2.60;;;;;;;;;;5011444;28;20057;-73
2021/11/22 21:29:11;;;;;;;6.82;2.53;;;;;;;;;;5011815;28;20058;-73
2021/11/22 21:31:37;;;;;;;7.32;2.72;;;;;;;;;;5013441;28;20064;-74
2021/11/22 21:34:11;;;;;;;6.72;3.00;;;;;;;;;;5013369;28;20029;-74
2021/11/22 21:36:37;;;;;;;6.05;2.40;;;;;;;;;;5013295;28;20030;-74
2021/11/22 21:39:05;;;;;;;5.95;2.28;;;;;;;;;;4993055;28;20033;-73
2021/11/22 21:41:31;;;;;;;6.05;2.65;;;;;;;;;;5013239;28;20038;-73
2021/11/22 21:43:57;;;;;;;6.32;2.35;;;;;;;;;;5013185;28;20017;-75
2021/11/22 21:46:22;;;;;;;7.43;2.47;;;;;;;;;;5013205;28;20026;-74
2021/11/22 21:48:48;;;;;;;7.13;2.50;;;;;;;;;;5013675;28;20060;-74
2021/11/22 21:51:14;;;;;;;5.07;2.10;;;;;;;;;;5012337;28;20042;-75
2021/11/22 21:53:39;;;;;;;6.13;2.35;;;;;;;;;;5012376;28;20030;-74
2021/11/22 21:56:05;;;;;;;6.95;2.25;;;;;;;;;;4996210;28;20142;-74
2021/11/22 21:58:31;;;;;;;4.78;2.60;;;;;;;;;;5012455;28;20378;-74